createdAt,value
2018-03-16T00:01:21.016Z,5.18
2018-03-16T00:03:49.114Z,3.78
2018-03-16T00:06:17.180Z,4.95
2018-03-16T00:08:45.318Z,4.80
2018-03-16T00:11:13.374Z,4.80
2018-03-16T00:13:41.560Z,4.25
2018-03-16T00:16:09.623Z,4.32
2018-03-16T00:18:37.796Z,4.30
2018-03-16T00:21:05.980Z,3.85
2018-03-16T00:23:34.078Z,5.22
2018-03-16T00:26:02.158Z,4.55
2018-03-16T00:28:30.241Z,4.72
2018-03-16T00:30:58.284Z,4.60
2018-03-16T00:33:26.434Z,4.00
2018-03-16T00:35:54.577Z,4.62
2018-03-16T00:38:23.160Z,4.00
2018-03-16T00:40:51.200Z,4.90
2018-03-16T00:43:19.339Z,4.37
2018-03-16T00:45:47.295Z,4.82
2018-03-16T00:48:15.415Z,3.97
2018-03-16T00:50:43.398Z,4.60
2018-03-16T00:53:11.498Z,4.60
2018-03-16T00:55:39.435Z,3.65
2018-03-16T00:58:07.580Z,4.20
2018-03-16T01:00:35.516Z,4.50
2018-03-16T01:03:03.638Z,4.72
2018-03-16T01:05:31.818Z,4.62
2018-03-16T01:08:00.024Z,4.68
2018-03-16T01:10:28.216Z,4.93
2018-03-16T01:12:56.441Z,4.60
2018-03-16T01:15:24.577Z,4.65
2018-03-16T01:17:52.657Z,4.65
2018-03-16T01:20:20.615Z,4.62
2018-03-16T01:22:50.542Z,4.10
2018-03-16T01:25:18.518Z,3.10
2018-03-16T01:27:46.458Z,2.95
2018-03-16T01:30:14.520Z,3.50
2018-03-16T01:32:42.617Z,4.72
2018-03-16T01:35:10.681Z,4.55
2018-03-16T01:37:38.637Z,5.32
2018-03-16T01:40:06.674Z,4.20
2018-03-16T01:42:34.978Z,3.97
2018-03-16T01:45:03.219Z,3.92
2018-03-16T01:47:31.296Z,3.78
2018-03-16T01:49:59.475Z,3.70
2018-03-16T01:52:27.584Z,3.50
2018-03-16T01:54:55.730Z,3.50
2018-03-16T01:57:23.662Z,3.95
2018-03-16T01:59:51.819Z,3.60
2018-03-16T02:02:19.795Z,3.50
2018-03-16T02:04:47.954Z,3.00
2018-03-16T02:07:15.969Z,3.28
2018-03-16T02:09:43.986Z,3.30
2018-03-16T02:12:12.018Z,3.33
2018-03-16T02:14:40.102Z,2.85
2018-03-16T02:17:08.034Z,3.22
2018-03-16T02:19:36.342Z,2.30
2018-03-16T02:22:04.286Z,2.47
2018-03-16T02:24:32.420Z,2.45
2018-03-16T02:27:00.637Z,2.28
2018-03-16T02:29:28.835Z,2.70
2018-03-16T02:31:56.975Z,2.30
2018-03-16T02:34:25.304Z,2.33
2018-03-16T02:36:53.260Z,2.20
2018-03-16T02:39:21.338Z,2.50
2018-03-16T02:41:49.281Z,2.55
2018-03-16T02:44:17.455Z,2.80
2018-03-16T02:46:45.439Z,1.95
2018-03-16T02:49:13.638Z,1.80
2018-03-16T02:51:41.558Z,2.10
2018-03-16T02:54:09.619Z,2.60
2018-03-16T02:56:37.740Z,2.40
2018-03-16T02:59:05.924Z,1.85
2018-03-16T03:01:34.058Z,2.37
2018-03-16T03:04:02.282Z,1.95
2018-03-16T03:06:30.516Z,1.50
2018-03-16T03:08:58.761Z,2.60
2018-03-16T03:11:26.981Z,2.40
2018-03-16T03:13:55.098Z,2.00
2018-03-16T03:16:23.108Z,1.80
2018-03-16T03:18:51.181Z,2.03
2018-03-16T03:21:19.178Z,2.10
2018-03-16T03:23:47.180Z,1.95
2018-03-16T03:26:15.188Z,2.45
2018-03-16T03:28:43.202Z,2.80
2018-03-16T03:31:11.225Z,5.12
2018-03-16T03:33:39.217Z,2.95
2018-03-16T03:36:07.415Z,2.35
2018-03-16T03:38:35.539Z,3.55
2018-03-16T03:41:03.700Z,2.70
2018-03-16T03:43:31.836Z,2.67
2018-03-16T03:45:59.959Z,2.03
2018-03-16T03:48:28.137Z,2.22
2018-03-16T03:50:56.282Z,2.75
2018-03-16T03:53:24.237Z,2.65
2018-03-16T03:55:52.361Z,2.50
2018-03-16T03:58:20.301Z,2.05
2018-03-16T04:00:48.380Z,3.30
2018-03-16T04:03:16.405Z,2.72
2018-03-16T04:05:44.407Z,3.12
2018-03-16T04:08:12.359Z,2.75
2018-03-16T04:10:40.417Z,2.62
2018-03-16T04:13:08.537Z,2.67
2018-03-16T04:15:36.658Z,3.05
2018-03-16T04:18:04.837Z,3.15
2018-03-16T04:20:33.117Z,2.53
2018-03-16T04:23:01.345Z,3.35
2018-03-16T04:25:29.589Z,2.28
2018-03-16T04:27:57.636Z,2.60
2018-03-16T04:30:25.780Z,2.53
2018-03-16T04:32:53.811Z,2.75
2018-03-16T04:35:21.839Z,2.20
2018-03-16T04:37:49.859Z,2.58
2018-03-16T04:40:17.958Z,2.58
2018-03-16T04:42:45.975Z,2.42
2018-03-16T04:45:14.124Z,3.10
2018-03-16T04:47:42.156Z,2.60
2018-03-16T04:50:10.296Z,2.55
2018-03-16T04:52:38.456Z,2.40
2018-03-16T04:55:06.780Z,3.03
2018-03-16T04:57:34.955Z,2.92
2018-03-16T05:00:03.165Z,2.53
2018-03-16T05:02:31.908Z,3.00
2018-03-16T05:05:00.011Z,2.37
2018-03-16T05:07:28.041Z,2.22
2018-03-16T05:09:56.150Z,2.55
2018-03-16T05:12:24.200Z,2.28
2018-03-16T05:14:52.294Z,2.60
2018-03-16T05:17:20.303Z,2.45
2018-03-16T05:19:48.408Z,2.70
2018-03-16T05:22:16.346Z,2.30
2018-03-16T05:24:44.398Z,2.50
2018-03-16T05:27:12.558Z,3.05
2018-03-16T05:29:40.708Z,3.25
2018-03-16T05:32:08.780Z,3.20
2018-03-16T05:34:37.056Z,3.10
2018-03-16T05:37:05.156Z,3.22
2018-03-16T05:39:33.265Z,2.72
2018-03-16T05:42:01.283Z,3.08
2018-03-16T05:44:29.258Z,3.12
2018-03-16T05:46:57.347Z,2.20
2018-03-16T05:49:25.270Z,2.33
2018-03-16T05:51:53.288Z,2.85
2018-03-16T05:54:21.229Z,3.17
2018-03-16T05:56:49.322Z,3.10
2018-03-16T05:59:17.318Z,3.22
2018-03-16T06:01:45.412Z,3.35
2018-03-16T06:04:13.620Z,4.50
2018-03-16T06:06:41.735Z,4.25
2018-03-16T06:09:09.804Z,4.80
2018-03-16T06:11:38.057Z,5.50
2018-03-16T06:14:06.222Z,5.50
2018-03-16T06:16:34.376Z,5.35
2018-03-16T06:19:02.451Z,5.97
2018-03-16T06:21:30.521Z,3.87
2018-03-16T06:23:58.546Z,2.80
2018-03-16T06:26:26.586Z,2.50
2018-03-16T06:28:54.663Z,2.47
2018-03-16T06:31:22.805Z,2.25
2018-03-16T06:33:50.846Z,2.37
2018-03-16T06:36:19.004Z,2.33
2018-03-16T06:38:47.160Z,2.37
2018-03-16T06:41:15.418Z,2.75
2018-03-16T06:43:43.503Z,3.10
2018-03-16T06:46:11.753Z,3.60
2018-03-16T06:48:39.937Z,2.45
2018-03-16T06:51:08.114Z,2.53
2018-03-16T06:53:36.204Z,2.60
2018-03-16T06:56:04.382Z,2.53
2018-03-16T06:58:32.401Z,1.73
2018-03-16T07:01:00.500Z,1.83
2018-03-16T07:03:28.503Z,1.90
2018-03-16T07:05:56.621Z,1.83
2018-03-16T07:08:24.615Z,1.58
2018-03-16T07:10:52.798Z,1.60
2018-03-16T07:13:20.878Z,1.77
2018-03-16T07:15:49.006Z,2.10
2018-03-16T07:18:17.185Z,2.30
2018-03-16T07:20:45.322Z,2.40
2018-03-16T07:23:13.429Z,1.85
2018-03-16T07:25:41.658Z,2.40
2018-03-16T07:28:09.655Z,2.20
2018-03-16T07:30:37.896Z,2.45
2018-03-16T07:33:05.895Z,2.28
2018-03-16T07:35:33.988Z,2.80
2018-03-16T07:38:01.942Z,2.95
2018-03-16T07:40:29.978Z,2.87
2018-03-16T07:42:57.959Z,2.42
2018-03-16T07:45:26.045Z,2.12
2018-03-16T07:47:53.953Z,2.10
2018-03-16T07:50:21.937Z,2.03
2018-03-16T07:52:50.062Z,2.05
2018-03-16T07:55:17.965Z,1.80
2018-03-16T07:57:46.124Z,1.58
2018-03-16T08:00:14.218Z,1.90
2018-03-16T08:02:42.378Z,1.60
2018-03-16T08:05:10.616Z,1.20
2018-03-16T08:07:38.704Z,1.33
2018-03-16T08:10:06.702Z,1.40
2018-03-16T08:12:34.794Z,1.50
2018-03-16T08:15:02.791Z,1.67
2018-03-16T08:17:30.916Z,1.27
2018-03-16T08:19:59.103Z,1.40
2018-03-16T08:22:27.265Z,1.40
2018-03-16T08:24:55.254Z,1.42
2018-03-16T08:27:23.296Z,1.30
2018-03-16T08:29:51.241Z,1.40
2018-03-16T08:32:19.337Z,1.20
2018-03-16T08:34:47.477Z,1.02
2018-03-16T08:37:15.726Z,0.90
2018-03-16T08:39:43.809Z,0.90
2018-03-16T08:42:11.980Z,1.40
2018-03-16T08:44:39.884Z,1.48
2018-03-16T08:47:07.934Z,0.82
2018-03-16T08:49:35.917Z,1.08
2018-03-16T08:52:03.966Z,1.15
2018-03-16T08:54:31.948Z,0.90
2018-03-16T08:57:00.036Z,0.70
2018-03-16T08:59:27.953Z,0.73
2018-03-16T09:01:55.973Z,1.00
2018-03-16T09:04:23.944Z,1.20
2018-03-16T09:06:51.963Z,0.70
2018-03-16T09:09:19.953Z,1.30
2018-03-16T09:11:48.044Z,1.08
2018-03-16T09:14:15.958Z,1.02
2018-03-16T09:16:44.135Z,1.05
2018-03-16T09:19:12.103Z,1.23
2018-03-16T09:21:40.222Z,1.15
2018-03-16T09:24:08.162Z,0.93
2018-03-16T09:26:36.214Z,1.25
2018-03-16T09:29:04.136Z,1.15
2018-03-16T09:31:32.219Z,1.10
2018-03-16T09:34:00.158Z,1.37
2018-03-16T09:36:28.279Z,1.25
2018-03-16T09:38:56.277Z,1.30
2018-03-16T09:41:24.378Z,1.10
2018-03-16T09:43:52.360Z,0.85
2018-03-16T09:46:20.419Z,1.02
2018-03-16T09:48:48.380Z,1.15
2018-03-16T09:51:16.381Z,1.00
2018-03-16T09:53:44.321Z,2.15
2018-03-16T09:56:12.380Z,2.70
2018-03-16T09:58:40.436Z,2.35
2018-03-16T10:01:08.471Z,1.48
2018-03-16T10:03:36.536Z,1.02
2018-03-16T10:06:04.536Z,0.62
2018-03-16T10:08:32.696Z,0.70
2018-03-16T10:11:00.675Z,0.90
2018-03-16T10:13:28.716Z,0.80
2018-03-16T10:15:56.679Z,0.90
2018-03-16T10:18:24.838Z,0.60
2018-03-16T10:20:52.831Z,0.62
2018-03-16T10:23:21.021Z,0.70
2018-03-16T10:25:49.340Z,1.15
2018-03-16T10:28:17.436Z,0.80
2018-03-16T10:30:45.488Z,0.95
2018-03-16T10:33:13.662Z,0.98
2018-03-16T10:35:41.582Z,0.90
2018-03-16T10:38:09.656Z,0.60
2018-03-16T10:40:37.581Z,0.80
2018-03-16T10:43:05.639Z,1.05
2018-03-16T10:45:33.580Z,0.90
2018-03-16T10:48:01.740Z,1.05
2018-03-16T10:50:29.694Z,1.17
2018-03-16T10:52:57.773Z,1.80
2018-03-16T10:55:25.703Z,1.02
2018-03-16T10:57:53.945Z,1.02
2018-03-16T11:00:21.871Z,1.40
2018-03-16T11:02:49.988Z,1.70
2018-03-16T11:05:18.181Z,1.67
2018-03-16T11:07:46.212Z,2.08
2018-03-16T11:10:14.204Z,1.48
2018-03-16T11:12:42.223Z,1.90
2018-03-16T11:15:10.178Z,1.50
2018-03-16T11:17:38.299Z,1.83
2018-03-16T11:20:06.276Z,1.58
2018-03-16T11:22:34.370Z,1.90
2018-03-16T11:25:02.345Z,1.90
2018-03-16T11:27:30.419Z,1.40
2018-03-16T11:29:58.340Z,1.48
2018-03-16T11:32:26.358Z,1.70
2018-03-16T11:34:54.381Z,1.80
2018-03-16T11:37:22.420Z,1.12
2018-03-16T11:39:50.411Z,1.70
2018-03-16T11:42:18.544Z,1.70
2018-03-16T11:44:46.544Z,1.80
2018-03-16T11:47:14.739Z,1.70
2018-03-16T11:49:42.729Z,3.58
2018-03-16T11:52:10.726Z,2.78
2018-03-16T11:54:38.780Z,1.67
2018-03-16T11:57:06.754Z,1.58
2018-03-16T11:59:34.748Z,1.40
2018-03-16T12:02:02.756Z,1.30
2018-03-16T12:04:30.769Z,1.50
2018-03-16T12:06:58.860Z,1.60
2018-03-16T12:09:27.003Z,1.85
2018-03-16T12:11:54.987Z,8.48
2018-03-16T12:14:22.984Z,2.62
2018-03-16T12:16:51.216Z,2.30
2018-03-16T12:19:19.578Z,2.50
2018-03-16T12:21:47.519Z,1.58
2018-03-16T12:24:15.629Z,1.90
2018-03-16T12:26:43.603Z,2.15
2018-03-16T12:29:11.569Z,2.05
2018-03-16T12:31:39.586Z,1.90
2018-03-16T12:34:07.596Z,1.67
2018-03-16T12:36:35.525Z,1.65
2018-03-16T12:39:03.524Z,1.65
2018-03-16T12:41:31.502Z,1.60
2018-03-16T12:43:59.535Z,1.30
2018-03-16T12:46:27.584Z,1.20
2018-03-16T12:48:55.581Z,0.85
2018-03-16T12:51:23.705Z,1.08
2018-03-16T12:53:51.994Z,1.60
2018-03-16T12:56:19.930Z,1.50
2018-03-16T12:58:47.920Z,1.60
2018-03-16T13:01:15.875Z,1.80
2018-03-16T13:03:43.905Z,1.40
2018-03-16T13:06:11.850Z,1.37
2018-03-16T13:08:39.943Z,2.25
2018-03-16T13:11:07.945Z,1.30
2018-03-16T13:13:36.044Z,1.42
2018-03-16T13:16:04.007Z,1.75
2018-03-16T13:18:32.027Z,2.28
2018-03-16T13:21:00.067Z,1.52
2018-03-16T13:23:28.067Z,1.70
2018-03-16T13:25:56.047Z,1.70
2018-03-16T13:28:24.047Z,1.40
2018-03-16T13:30:52.067Z,1.62
2018-03-16T13:33:20.157Z,1.10
2018-03-16T13:35:48.356Z,1.60
2018-03-16T13:38:16.337Z,1.50
2018-03-16T13:40:44.342Z,1.40
2018-03-16T13:43:12.311Z,1.23
2018-03-16T13:45:40.379Z,1.40
2018-03-16T13:48:08.356Z,1.20
2018-03-16T13:50:36.345Z,1.35
2018-03-16T13:53:04.286Z,1.55
2018-03-16T13:55:32.282Z,1.52
2018-03-16T13:58:00.251Z,1.20
2018-03-16T14:00:28.227Z,1.20
2018-03-16T14:02:56.467Z,0.98
2018-03-16T14:05:24.427Z,0.77
2018-03-16T14:07:52.379Z,0.77
2018-03-16T14:10:21.038Z,0.65
2018-03-16T14:12:49.076Z,0.50
2018-03-16T14:15:17.076Z,0.52
2018-03-16T14:17:45.030Z,0.45
2018-03-16T14:20:12.990Z,0.90
2018-03-16T14:22:40.938Z,0.50
2018-03-16T14:25:09.004Z,0.60
2018-03-16T14:27:36.953Z,0.60
2018-03-16T14:30:04.936Z,0.57
2018-03-16T14:32:32.984Z,0.50
2018-03-16T14:35:00.978Z,0.60
2018-03-16T14:37:28.983Z,0.40
2018-03-16T14:39:57.181Z,0.62
2018-03-16T14:42:25.292Z,0.50
2018-03-16T14:44:53.657Z,0.52
2018-03-16T14:47:21.814Z,0.40
2018-03-16T14:49:49.838Z,0.70
2018-03-16T14:52:17.792Z,0.65
2018-03-16T14:54:45.787Z,0.50
2018-03-16T14:57:13.783Z,0.55
2018-03-16T14:59:41.814Z,0.60
2018-03-16T15:02:09.806Z,0.85
2018-03-16T15:04:37.758Z,1.02
2018-03-16T15:07:05.710Z,0.95
2018-03-16T15:09:33.672Z,0.80
2018-03-16T15:12:01.799Z,0.73
2018-03-16T15:14:30.055Z,0.95
2018-03-16T15:16:58.247Z,1.23
2018-03-16T15:19:26.535Z,1.35
2018-03-16T15:21:54.836Z,0.80
2018-03-16T15:24:23.028Z,1.37
2018-03-16T15:26:51.016Z,0.70
2018-03-16T15:29:19.060Z,0.50
2018-03-16T15:31:47.042Z,0.77
2018-03-16T15:34:15.038Z,0.70
2018-03-16T15:36:42.996Z,0.68
2018-03-16T15:39:11.008Z,0.60
2018-03-16T15:41:38.980Z,0.98
2018-03-16T15:44:07.012Z,0.70
2018-03-16T15:46:35.150Z,1.30
2018-03-16T15:49:03.568Z,0.88
2018-03-16T15:51:31.835Z,1.30
2018-03-16T15:54:00.150Z,1.25
2018-03-16T15:56:28.373Z,1.12
2018-03-16T15:58:56.465Z,1.05
2018-03-16T16:01:24.451Z,0.80
2018-03-16T16:03:52.439Z,0.85
2018-03-16T16:06:20.346Z,1.00
2018-03-16T16:08:48.361Z,0.90
2018-03-16T16:11:16.303Z,0.95
2018-03-16T16:13:44.275Z,1.00
2018-03-16T16:16:13.005Z,0.70
2018-03-16T16:18:41.005Z,0.80
2018-03-16T16:21:09.025Z,1.00
2018-03-16T16:23:37.001Z,0.90
2018-03-16T16:26:05.372Z,1.00
2018-03-16T16:28:33.457Z,1.20
2018-03-16T16:31:01.554Z,1.00
2018-03-16T16:33:29.559Z,1.08
2018-03-16T16:35:57.663Z,1.10
2018-03-16T16:38:25.800Z,1.50
2018-03-16T16:40:53.783Z,1.25
2018-03-16T16:43:21.788Z,1.65
2018-03-16T16:45:49.796Z,2.78
2018-03-16T16:48:17.770Z,4.72
2018-03-16T16:50:45.760Z,4.25
2018-03-16T16:53:13.735Z,3.25
2018-03-16T16:55:41.683Z,2.30
2018-03-16T16:58:09.733Z,3.30
2018-03-16T17:00:37.679Z,3.33
2018-03-16T17:03:05.642Z,4.25
2018-03-16T17:05:33.703Z,3.75
2018-03-16T17:08:01.885Z,6.37
2018-03-16T17:10:30.018Z,6.40
2018-03-16T17:12:58.263Z,5.97
2018-03-16T17:15:26.469Z,4.97
2018-03-16T17:17:54.478Z,4.47
2018-03-16T17:20:22.644Z,4.68
2018-03-16T17:22:50.729Z,4.82
2018-03-16T17:25:18.835Z,4.87
2018-03-16T17:27:46.918Z,4.30
2018-03-16T17:30:15.006Z,3.92
2018-03-16T17:32:43.218Z,4.40
2018-03-16T17:35:11.310Z,4.32
2018-03-16T17:37:39.603Z,4.53
2018-03-16T17:40:07.804Z,4.22
2018-03-16T17:42:35.896Z,5.20
2018-03-16T17:45:03.979Z,5.18
2018-03-16T17:47:32.080Z,3.67
2018-03-16T17:50:00.260Z,5.20
2018-03-16T17:52:28.362Z,5.15
2018-03-16T17:54:56.540Z,4.93
2018-03-16T17:57:24.642Z,5.60
2018-03-16T17:59:52.740Z,6.80
2018-03-16T18:02:20.820Z,8.23
2018-03-16T18:04:48.829Z,8.77
2018-03-16T18:07:17.010Z,8.90
2018-03-16T18:09:45.209Z,8.32
2018-03-16T18:12:13.406Z,8.43
2018-03-16T18:14:41.639Z,7.10
2018-03-16T18:17:09.793Z,8.07
2018-03-16T18:19:38.083Z,8.25
2018-03-16T18:22:06.170Z,7.90
2018-03-16T18:24:34.483Z,7.43
2018-03-16T18:27:03.541Z,8.95
2018-03-16T18:29:31.672Z,8.63
2018-03-16T18:31:59.772Z,8.52
2018-03-16T18:34:27.857Z,7.95
2018-03-16T18:36:56.269Z,6.85
2018-03-16T18:39:24.378Z,6.72
2018-03-16T18:41:52.437Z,6.65
2018-03-16T18:44:20.547Z,7.70
2018-03-16T18:46:48.566Z,6.90
2018-03-16T18:49:16.736Z,7.40
2018-03-16T18:51:45.016Z,6.68
2018-03-16T18:54:13.113Z,10.65
2018-03-16T18:56:41.300Z,9.90
2018-03-16T18:59:09.612Z,7.50
2018-03-16T19:01:38.000Z,8.60
2018-03-16T19:04:06.204Z,7.35
2018-03-16T19:06:34.400Z,8.35
2018-03-16T19:09:02.492Z,7.12
2018-03-16T19:11:30.686Z,7.22
2018-03-16T19:13:58.874Z,8.00
2018-03-16T19:16:26.964Z,8.35
2018-03-16T19:18:55.059Z,9.68
2018-03-16T19:21:23.367Z,8.48
2018-03-16T19:23:51.442Z,9.02
2018-03-16T19:26:19.538Z,8.68
2018-03-16T19:28:47.627Z,7.62
2018-03-16T19:31:15.921Z,7.53
2018-03-16T19:33:44.216Z,7.70
2018-03-16T19:36:12.411Z,6.57
2018-03-16T19:38:40.613Z,7.43
2018-03-16T19:41:09.835Z,11.65
2018-03-16T19:43:37.920Z,9.65
2018-03-16T19:46:06.120Z,8.63
2018-03-16T19:48:34.218Z,8.75
2018-03-16T19:51:02.438Z,8.20
2018-03-16T19:53:30.602Z,7.00
2018-03-16T19:55:58.683Z,5.80
2018-03-16T19:58:26.886Z,4.85
2018-03-16T20:00:55.276Z,5.55
2018-03-16T20:03:23.416Z,4.22
2018-03-16T20:05:51.558Z,3.95
2018-03-16T20:08:19.658Z,4.60
2018-03-16T20:10:47.867Z,4.10
2018-03-16T20:13:16.407Z,3.55
2018-03-16T20:15:44.963Z,4.30
2018-03-16T20:18:13.162Z,3.60
2018-03-16T20:20:41.443Z,3.95
2018-03-16T20:23:09.643Z,3.33
2018-03-16T20:25:37.862Z,3.92
2018-03-16T20:28:06.051Z,3.37
2018-03-16T20:30:34.382Z,4.37
2018-03-16T20:33:02.534Z,4.15
2018-03-16T20:35:31.750Z,4.55
2018-03-16T20:37:59.945Z,4.68
2018-03-16T20:40:27.962Z,3.90
2018-03-16T20:42:56.122Z,4.93
2018-03-16T20:45:24.223Z,4.00
2018-03-16T20:47:52.426Z,3.80
2018-03-16T20:50:20.602Z,4.40
2018-03-16T20:52:48.706Z,5.25
2018-03-16T20:55:16.678Z,4.32
2018-03-16T20:57:44.916Z,4.47
2018-03-16T21:00:12.973Z,4.57
2018-03-16T21:02:41.163Z,5.60
2018-03-16T21:05:09.459Z,5.37
2018-03-16T21:07:37.653Z,5.10
2018-03-16T21:10:05.733Z,4.55
2018-03-16T21:12:33.874Z,5.00
2018-03-16T21:15:02.133Z,6.12
2018-03-16T21:17:30.627Z,5.97
2018-03-16T21:19:58.733Z,6.68
2018-03-16T21:22:27.039Z,6.85
2018-03-16T21:24:55.153Z,5.53
2018-03-16T21:27:23.416Z,5.55
2018-03-16T21:29:51.630Z,5.80
2018-03-16T21:32:19.793Z,5.55
2018-03-16T21:34:47.993Z,5.53
2018-03-16T21:37:16.153Z,4.72
2018-03-16T21:39:44.197Z,5.10
2018-03-16T21:42:12.381Z,5.45
2018-03-16T21:44:40.561Z,4.85
2018-03-16T21:47:08.861Z,5.25
2018-03-16T21:49:36.961Z,6.65
2018-03-16T21:52:05.161Z,4.95
2018-03-16T21:54:33.346Z,6.07
2018-03-16T21:57:01.522Z,6.45
2018-03-16T21:59:29.837Z,6.32
2018-03-16T22:01:58.038Z,6.60
2018-03-16T22:04:26.228Z,6.30
2018-03-16T22:06:54.419Z,5.97
2018-03-16T22:09:22.614Z,6.30
2018-03-16T22:11:50.818Z,6.75
2018-03-16T22:14:19.026Z,6.28
2018-03-16T22:16:47.700Z,6.10
2018-03-16T22:19:15.725Z,4.87
2018-03-16T22:21:43.895Z,5.60
2018-03-16T22:24:11.995Z,7.35
2018-03-16T22:26:40.186Z,6.93
2018-03-16T22:29:08.375Z,6.45
2018-03-16T22:31:36.578Z,6.78
2018-03-16T22:34:04.874Z,5.80
2018-03-16T22:36:33.061Z,5.07
2018-03-16T22:39:01.253Z,6.05
2018-03-16T22:41:29.461Z,5.45
2018-03-16T22:43:57.748Z,5.57
2018-03-16T22:46:25.940Z,5.93
2018-03-16T22:48:54.235Z,5.57
2018-03-16T22:51:22.543Z,6.22
2018-03-16T22:53:51.543Z,6.10
2018-03-16T22:56:19.803Z,5.10
2018-03-16T22:58:48.001Z,5.90
2018-03-16T23:01:16.028Z,4.90
2018-03-16T23:03:44.422Z,6.37
2018-03-16T23:06:12.508Z,5.40
2018-03-16T23:08:40.709Z,4.65
2018-03-16T23:11:09.943Z,4.93
2018-03-16T23:13:38.119Z,5.72
2018-03-16T23:16:06.420Z,5.45
2018-03-16T23:18:34.624Z,5.37
2018-03-16T23:21:02.701Z,5.05
2018-03-16T23:23:30.900Z,5.57
2018-03-16T23:25:58.989Z,5.28
2018-03-16T23:28:27.195Z,6.00
2018-03-16T23:30:55.481Z,5.65
2018-03-16T23:33:23.684Z,5.72
2018-03-16T23:35:52.071Z,6.55
2018-03-16T23:38:20.480Z,6.07
2018-03-16T23:40:48.676Z,5.80
2018-03-16T23:43:17.098Z,5.37
2018-03-16T23:45:45.476Z,5.25
2018-03-16T23:48:13.671Z,5.93
2018-03-16T23:50:41.756Z,5.50
2018-03-16T23:53:09.945Z,7.90
2018-03-16T23:55:38.154Z,5.20
2018-03-16T23:58:06.333Z,5.22
